Time;durP1;ratioP1;P1;durP2;ratioP2;P2;SDS_P1;SDS_P2;PMS_P1;PMS_P2;Temp;Humidity;BMP_temperature;BMP_pressure;BME280_temperature;BME280_humidity;BME280_pressure;Samples;Min_cycle;Max_cycle;Signal;HPM_P1;HPM_P2
2022/03/22 00:02:23;;;;;;;23.30;17.67;;;;;;;;;;4999502;28;20194;-58
2022/03/22 00:04:49;;;;;;;19.77;16.40;;;;;;;;;;5003997;28;20231;-57
2022/03/22 00:07:15;;;;;;;20.17;17.67;;;;;;;;;;4990246;28;20197;-57
2022/03/22 00:09:41;;;;;;;22.23;18.13;;;;;;;;;;4994740;28;20193;-57
2022/03/22 00:12:08;;;;;;;21.80;17.97;;;;;;;;;;4986992;28;20225;-58
2022/03/22 00:14:34;;;;;;;20.50;17.23;;;;;;;;;;4974899;28;20660;-57
2022/03/22 00:17:00;;;;;;;22.93;18.00;;;;;;;;;;4985718;28;20247;-58
2022/03/22 00:19:26;;;;;;;21.70;18.30;;;;;;;;;;4986035;28;20338;-58
2022/03/22 00:21:52;;;;;;;21.67;17.63;;;;;;;;;;4995154;28;20220;-58
2022/03/22 00:24:18;;;;;;;22.03;17.90;;;;;;;;;;4990429;28;20209;-57
2022/03/22 00:26:47;;;;;;;21.10;18.30;;;;;;;;;;4993466;28;20247;-57
2022/03/22 00:29:13;;;;;;;24.10;17.93;;;;;;;;;;4985413;28;20236;-57
2022/03/22 00:31:39;;;;;;;22.47;18.27;;;;;;;;;;4976981;28;20197;-58
2022/03/22 00:34:05;;;;;;;20.07;17.97;;;;;;;;;;4982288;28;20678;-58
2022/03/22 00:36:32;;;;;;;19.93;17.23;;;;;;;;;;4983621;28;20698;-58
2022/03/22 00:38:58;;;;;;;25.57;17.53;;;;;;;;;;4990728;28;21037;-58
2022/03/22 00:41:23;;;;;;;21.30;17.40;;;;;;;;;;4991803;28;20193;-58
2022/03/22 00:43:49;;;;;;;22.17;16.80;;;;;;;;;;4982184;28;20663;-57
2022/03/22 00:46:15;;;;;;;21.97;17.70;;;;;;;;;;4982984;28;20193;-57
2022/03/22 00:48:42;;;;;;;24.43;18.20;;;;;;;;;;4994113;28;20194;-57
2022/03/22 00:51:09;;;;;;;24.40;17.00;;;;;;;;;;5001084;28;20243;-57
2022/03/22 00:53:35;;;;;;;22.53;17.53;;;;;;;;;;5003178;28;20629;-57
2022/03/22 00:56:01;;;;;;;21.97;18.67;;;;;;;;;;4986800;28;20201;-57
2022/03/22 00:58:27;;;;;;;22.23;17.93;;;;;;;;;;4994401;28;20254;-57
2022/03/22 01:00:53;;;;;;;20.97;17.77;;;;;;;;;;4988241;28;20983;-58
2022/03/22 01:03:19;;;;;;;22.03;17.93;;;;;;;;;;4993156;28;20319;-57
2022/03/22 01:05:45;;;;;;;24.77;19.07;;;;;;;;;;4992835;28;20308;-58
2022/03/22 01:08:12;;;;;;;21.53;16.97;;;;;;;;;;4994291;28;20193;-57
2022/03/22 01:10:39;;;;;;;21.87;17.77;;;;;;;;;;4982309;28;20199;-58
2022/03/22 01:13:06;;;;;;;20.67;17.47;;;;;;;;;;4984054;28;20189;-58
2022/03/22 01:15:33;;;;;;;21.73;18.00;;;;;;;;;;4990762;28;20673;-58
2022/03/22 01:18:05;;;;;;;22.53;18.17;;;;;;;;;;4996525;28;20190;-58
2022/03/22 01:20:31;;;;;;;23.43;18.43;;;;;;;;;;4979676;28;20188;-57
2022/03/22 01:22:57;;;;;;;23.77;18.37;;;;;;;;;;4992703;28;20189;-57
2022/03/22 01:25:24;;;;;;;21.33;18.43;;;;;;;;;;4984292;28;20241;-56
2022/03/22 01:27:50;;;;;;;21.97;17.53;;;;;;;;;;4989451;28;20664;-58
2022/03/22 01:30:16;;;;;;;24.30;17.93;;;;;;;;;;4985625;28;20391;-58
2022/03/22 01:32:43;;;;;;;19.83;17.23;;;;;;;;;;4996970;28;20262;-57
2022/03/22 01:35:09;;;;;;;24.17;18.10;;;;;;;;;;4997654;28;21542;-58
2022/03/22 01:37:36;;;;;;;21.77;17.63;;;;;;;;;;5001820;28;20189;-58
2022/03/22 01:40:01;;;;;;;21.43;17.13;;;;;;;;;;4987309;28;20200;-57
2022/03/22 01:42:27;;;;;;;20.37;18.07;;;;;;;;;;4985883;28;20348;-58
2022/03/22 01:44:53;;;;;;;22.90;17.73;;;;;;;;;;4994798;28;20682;-57
2022/03/22 01:47:20;;;;;;;22.77;17.07;;;;;;;;;;4992752;28;20189;-58
2022/03/22 01:49:47;;;;;;;23.33;17.63;;;;;;;;;;5001805;28;20643;-57
2022/03/22 01:52:15;;;;;;;26.63;18.03;;;;;;;;;;5003264;28;20194;-58
2022/03/22 01:54:42;;;;;;;24.37;18.10;;;;;;;;;;4995609;28;20634;-58
2022/03/22 01:57:09;;;;;;;21.27;17.03;;;;;;;;;;4991022;28;20278;-58
2022/03/22 01:59:35;;;;;;;21.97;17.13;;;;;;;;;;4987126;28;21443;-57
2022/03/22 02:07:33;;;;;;;19.13;17.03;;;;;;;;;;4997678;28;20199;-58
2022/03/22 02:09:59;;;;;;;19.60;16.53;;;;;;;;;;5002365;28;20185;-58
2022/03/22 02:12:26;;;;;;;24.07;17.30;;;;;;;;;;5004151;28;20181;-58
2022/03/22 02:14:52;;;;;;;22.43;17.77;;;;;;;;;;4998042;28;20193;-58
2022/03/22 02:17:18;;;;;;;23.90;17.03;;;;;;;;;;4993635;28;20538;-57
2022/03/22 02:19:44;;;;;;;21.70;16.67;;;;;;;;;;4997573;28;20971;-57
2022/03/22 02:22:11;;;;;;;24.07;17.73;;;;;;;;;;5001562;28;20202;-56
2022/03/22 02:24:37;;;;;;;20.27;16.37;;;;;;;;;;4997538;28;20213;-58
2022/03/22 02:27:03;;;;;;;21.17;17.03;;;;;;;;;;5002264;28;20189;-58
2022/03/22 02:29:29;;;;;;;20.57;16.43;;;;;;;;;;5006402;28;20186;-57
2022/03/22 02:31:55;;;;;;;21.07;16.33;;;;;;;;;;4991533;28;20196;-58
2022/03/22 02:34:21;;;;;;;20.80;16.70;;;;;;;;;;4992232;28;20201;-57
2022/03/22 02:36:47;;;;;;;22.33;16.10;;;;;;;;;;4984347;28;20844;-58
2022/03/22 02:39:13;;;;;;;19.57;16.40;;;;;;;;;;4993298;28;20196;-57
2022/03/22 02:41:39;;;;;;;22.63;15.90;;;;;;;;;;4985987;28;20644;-57
2022/03/22 02:44:05;;;;;;;23.97;16.57;;;;;;;;;;4994840;28;20239;-58
2022/03/22 02:46:31;;;;;;;23.30;16.60;;;;;;;;;;4997159;28;20189;-58
2022/03/22 02:48:57;;;;;;;19.70;16.20;;;;;;;;;;4995227;28;21315;-58
2022/03/22 02:51:23;;;;;;;18.33;15.73;;;;;;;;;;4994114;28;20192;-58
2022/03/22 02:53:49;;;;;;;23.90;17.07;;;;;;;;;;4994300;28;20778;-57
2022/03/22 02:56:15;;;;;;;22.27;16.70;;;;;;;;;;4988492;28;20201;-58
2022/03/22 02:58:41;;;;;;;23.03;16.27;;;;;;;;;;4998561;28;20251;-57
2022/03/22 03:01:07;;;;;;;23.00;16.67;;;;;;;;;;4991748;28;20201;-58
2022/03/22 03:03:33;;;;;;;21.73;16.53;;;;;;;;;;5002782;28;20245;-57
2022/03/22 03:06:00;;;;;;;21.13;16.40;;;;;;;;;;4987310;28;20220;-57
2022/03/22 03:08:26;;;;;;;19.37;16.17;;;;;;;;;;4983200;28;20193;-58
2022/03/22 03:10:53;;;;;;;19.27;16.33;;;;;;;;;;4983064;28;20217;-58
2022/03/22 03:13:19;;;;;;;22.23;16.13;;;;;;;;;;4985327;28;20656;-58
2022/03/22 03:15:44;;;;;;;24.03;16.63;;;;;;;;;;4993087;28;20200;-58
2022/03/22 03:18:11;;;;;;;22.13;16.03;;;;;;;;;;4986891;28;20189;-58
2022/03/22 03:20:37;;;;;;;20.77;15.80;;;;;;;;;;4998225;28;20276;-57
2022/03/22 03:23:03;;;;;;;20.57;15.80;;;;;;;;;;4998778;28;20227;-58
2022/03/22 03:25:30;;;;;;;21.10;15.97;;;;;;;;;;4992586;28;20239;-58
2022/03/22 03:27:55;;;;;;;18.63;15.77;;;;;;;;;;4995085;28;20631;-57
2022/03/22 03:30:22;;;;;;;20.63;16.30;;;;;;;;;;4995439;28;20903;-58
2022/03/22 03:32:48;;;;;;;20.13;15.67;;;;;;;;;;4992006;28;20192;-57
2022/03/22 03:35:13;;;;;;;20.20;16.07;;;;;;;;;;4991866;28;20193;-57
2022/03/22 03:37:43;;;;;;;19.00;15.33;;;;;;;;;;4980877;28;20200;-58
2022/03/22 03:40:09;;;;;;;20.60;15.93;;;;;;;;;;4986634;28;20203;-58
2022/03/22 03:42:42;;;;;;;21.30;15.43;;;;;;;;;;4984371;28;20736;-57
2022/03/22 03:47:55;;;;;;;19.20;15.70;;;;;;;;;;4981298;28;20250;-57
2022/03/22 03:50:21;;;;;;;22.20;15.27;;;;;;;;;;4983334;28;20678;-58
2022/03/22 03:52:47;;;;;;;24.07;16.43;;;;;;;;;;4990189;28;20189;-58
2022/03/22 03:55:13;;;;;;;19.37;16.20;;;;;;;;;;4988699;28;20208;-58
2022/03/22 03:57:39;;;;;;;19.20;16.33;;;;;;;;;;4988198;28;20189;-58
2022/03/22 04:00:07;;;;;;;21.70;15.93;;;;;;;;;;4991055;28;20193;-57
2022/03/22 04:02:33;;;;;;;20.33;16.80;;;;;;;;;;4998296;28;20198;-58
2022/03/22 04:04:58;;;;;;;18.83;15.73;;;;;;;;;;4992461;28;20595;-57
2022/03/22 04:07:25;;;;;;;21.23;16.17;;;;;;;;;;4990623;28;20200;-57
2022/03/22 04:09:51;;;;;;;23.83;16.60;;;;;;;;;;4991823;28;20201;-58
2022/03/22 04:12:17;;;;;;;21.63;17.33;;;;;;;;;;4985947;28;20193;-57
2022/03/22 04:14:43;;;;;;;20.47;16.30;;;;;;;;;;4989349;28;20201;-57
2022/03/22 04:17:09;;;;;;;27.53;15.90;;;;;;;;;;4989118;28;20301;-57
2022/03/22 04:19:35;;;;;;;20.97;16.77;;;;;;;;;;4988280;28;21579;-58
2022/03/22 04:22:02;;;;;;;21.93;16.43;;;;;;;;;;4988472;28;20204;-57
2022/03/22 04:24:28;;;;;;;22.37;16.83;;;;;;;;;;4984915;28;20682;-58
2022/03/22 04:26:55;;;;;;;23.27;16.10;;;;;;;;;;4986155;28;20204;-58
2022/03/22 04:34:58;;;;;;;19.57;15.60;;;;;;;;;;4984169;28;20644;-58
2022/03/22 04:37:24;;;;;;;22.47;15.93;;;;;;;;;;5001748;28;20271;-57
2022/03/22 04:39:50;;;;;;;22.00;16.53;;;;;;;;;;4993827;28;20252;-58
2022/03/22 04:42:16;;;;;;;20.77;15.93;;;;;;;;;;4998981;28;20276;-57
2022/03/22 04:44:43;;;;;;;21.37;15.63;;;;;;;;;;4989653;28;20260;-58
2022/03/22 04:47:09;;;;;;;21.27;15.70;;;;;;;;;;4986081;28;20196;-57
2022/03/22 04:49:35;;;;;;;20.23;16.10;;;;;;;;;;4994736;28;20200;-57
2022/03/22 04:57:30;;;;;;;21.30;16.00;;;;;;;;;;4993328;28;20673;-57
2022/03/22 04:59:56;;;;;;;18.90;15.63;;;;;;;;;;4986046;28;20200;-58
2022/03/22 05:02:23;;;;;;;20.60;15.93;;;;;;;;;;4993834;28;20192;-58
2022/03/22 05:04:49;;;;;;;19.40;15.47;;;;;;;;;;5000915;28;20281;-58
2022/03/22 05:07:14;;;;;;;20.53;15.70;;;;;;;;;;4997000;28;20304;-57
2022/03/22 05:09:40;;;;;;;18.63;15.73;;;;;;;;;;5002122;28;20216;-57
2022/03/22 05:12:13;;;;;;;21.90;16.67;;;;;;;;;;4997257;28;20221;-58
2022/03/22 05:14:39;;;;;;;20.87;15.33;;;;;;;;;;4989414;28;20208;-58
2022/03/22 05:17:05;;;;;;;18.20;15.33;;;;;;;;;;4997657;28;20193;-57
2022/03/22 05:19:31;;;;;;;18.73;15.17;;;;;;;;;;4993674;28;20212;-58
2022/03/22 05:21:56;;;;;;;18.03;14.97;;;;;;;;;;4990259;28;20902;-57
2022/03/22 05:24:22;;;;;;;17.67;14.90;;;;;;;;;;4992512;28;20217;-57
2022/03/22 05:26:50;;;;;;;20.13;16.03;;;;;;;;;;4994941;28;20297;-57
2022/03/22 05:29:17;;;;;;;19.37;14.60;;;;;;;;;;4993512;28;20674;-58
2022/03/22 05:31:45;;;;;;;20.47;15.90;;;;;;;;;;4993587;28;20200;-58
2022/03/22 05:34:11;;;;;;;19.50;15.43;;;;;;;;;;4993850;28;20195;-57
2022/03/22 05:36:37;;;;;;;18.67;15.73;;;;;;;;;;4988098;28;20242;-58
2022/03/22 05:39:03;;;;;;;18.70;15.80;;;;;;;;;;4985734;28;20517;-57
2022/03/22 05:41:29;;;;;;;16.93;14.97;;;;;;;;;;4994125;28;20192;-57
2022/03/22 05:43:55;;;;;;;20.17;15.20;;;;;;;;;;4992986;28;20690;-57
2022/03/22 05:46:22;;;;;;;20.83;16.03;;;;;;;;;;4998183;28;20204;-57
2022/03/22 05:48:48;;;;;;;20.10;15.50;;;;;;;;;;4995923;28;20658;-58
2022/03/22 05:51:16;;;;;;;20.17;15.37;;;;;;;;;;4991219;28;20197;-58
2022/03/22 05:53:43;;;;;;;19.90;15.27;;;;;;;;;;5001758;28;20723;-57
2022/03/22 05:56:09;;;;;;;22.53;15.17;;;;;;;;;;5000813;28;20193;-57
2022/03/22 05:58:35;;;;;;;19.77;14.90;;;;;;;;;;4995016;28;20204;-57
2022/03/22 06:01:01;;;;;;;20.37;15.00;;;;;;;;;;4995517;28;20197;-57
2022/03/22 06:03:27;;;;;;;17.80;14.60;;;;;;;;;;5000839;28;20650;-56
2022/03/22 06:05:53;;;;;;;18.47;15.17;;;;;;;;;;4987741;28;20217;-57
2022/03/22 06:08:19;;;;;;;19.60;15.00;;;;;;;;;;4988725;28;20476;-58
2022/03/22 06:10:46;;;;;;;19.90;15.20;;;;;;;;;;4986306;28;20204;-57
2022/03/22 06:13:11;;;;;;;21.77;15.47;;;;;;;;;;4992283;28;20211;-59
2022/03/22 06:15:38;;;;;;;23.37;15.87;;;;;;;;;;4996062;28;20194;-58
2022/03/22 06:18:11;;;;;;;24.10;16.97;;;;;;;;;;5005502;28;20215;-57
2022/03/22 06:20:38;;;;;;;20.87;15.83;;;;;;;;;;5005853;28;20193;-58
2022/03/22 06:23:07;;;;;;;23.67;17.10;;;;;;;;;;5013185;28;20781;-57
2022/03/22 06:25:34;;;;;;;20.13;16.27;;;;;;;;;;5001824;28;20232;-57
2022/03/22 06:28:00;;;;;;;19.60;15.73;;;;;;;;;;4998235;28;20186;-57
2022/03/22 06:30:26;;;;;;;20.43;15.87;;;;;;;;;;4990899;28;20189;-56
2022/03/22 06:32:53;;;;;;;18.97;15.40;;;;;;;;;;5000884;28;20243;-57
2022/03/22 06:35:19;;;;;;;20.97;15.37;;;;;;;;;;5001039;28;20248;-58
2022/03/22 06:37:45;;;;;;;19.97;14.93;;;;;;;;;;4998195;28;20197;-57
2022/03/22 06:40:11;;;;;;;21.13;15.93;;;;;;;;;;4996736;28;20553;-57
2022/03/22 06:42:37;;;;;;;18.80;15.37;;;;;;;;;;4996639;28;20232;-58
2022/03/22 06:45:04;;;;;;;21.50;15.27;;;;;;;;;;4993372;28;20254;-57
2022/03/22 06:47:30;;;;;;;20.43;15.07;;;;;;;;;;4996505;28;20198;-58
2022/03/22 06:49:57;;;;;;;19.27;14.50;;;;;;;;;;5010163;28;20863;-58
2022/03/22 06:52:23;;;;;;;21.87;15.17;;;;;;;;;;5000250;28;20192;-57
2022/03/22 06:54:48;;;;;;;20.17;14.43;;;;;;;;;;5006763;28;20208;-57
2022/03/22 06:57:15;;;;;;;18.43;14.77;;;;;;;;;;4999530;28;20204;-58
2022/03/22 06:59:41;;;;;;;17.77;14.23;;;;;;;;;;5009848;28;20619;-58
2022/03/22 07:02:07;;;;;;;18.47;14.83;;;;;;;;;;5005299;28;20204;-58
2022/03/22 07:04:33;;;;;;;20.10;14.60;;;;;;;;;;5003715;28;20220;-57
2022/03/22 07:06:59;;;;;;;20.97;14.10;;;;;;;;;;5006665;28;20189;-57
2022/03/22 07:09:25;;;;;;;16.83;13.73;;;;;;;;;;4999652;28;20965;-58
2022/03/22 07:11:52;;;;;;;19.60;15.23;;;;;;;;;;4996813;28;20211;-57
2022/03/22 07:14:18;;;;;;;16.97;14.80;;;;;;;;;;4999279;28;20440;-57
2022/03/22 07:16:47;;;;;;;18.50;14.70;;;;;;;;;;4994650;28;20263;-58
2022/03/22 07:19:13;;;;;;;16.53;13.23;;;;;;;;;;4994581;28;20201;-58
2022/03/22 07:21:39;;;;;;;16.63;13.50;;;;;;;;;;4993024;28;20192;-58
2022/03/22 07:24:05;;;;;;;16.83;13.67;;;;;;;;;;5004326;28;20224;-58
2022/03/22 07:26:31;;;;;;;18.97;13.90;;;;;;;;;;5003205;28;20311;-58
2022/03/22 07:28:57;;;;;;;15.97;13.63;;;;;;;;;;4999886;28;20190;-57
2022/03/22 07:31:22;;;;;;;19.63;13.03;;;;;;;;;;5003641;28;20626;-57
2022/03/22 07:33:49;;;;;;;16.40;13.70;;;;;;;;;;5009583;28;20658;-57
2022/03/22 07:36:15;;;;;;;19.53;14.07;;;;;;;;;;5009328;28;20197;-58
2022/03/22 07:38:41;;;;;;;16.63;13.60;;;;;;;;;;5019793;28;20284;-57
2022/03/22 07:41:07;;;;;;;17.97;13.77;;;;;;;;;;5010869;28;22238;-57
2022/03/22 07:43:33;;;;;;;16.10;13.33;;;;;;;;;;4997142;28;20568;-58
2022/03/22 07:45:59;;;;;;;15.37;13.27;;;;;;;;;;4998834;28;20192;-57
2022/03/22 07:48:25;;;;;;;16.73;13.30;;;;;;;;;;4996398;28;20197;-58
2022/03/22 07:53:56;;;;;;;20.87;13.43;;;;;;;;;;4948114;28;20330;-57
2022/03/22 07:56:22;;;;;;;17.17;13.70;;;;;;;;;;4942029;28;21125;-58
2022/03/22 07:58:48;;;;;;;16.70;13.27;;;;;;;;;;4968807;28;20211;-57
2022/03/22 08:01:14;;;;;;;18.50;13.63;;;;;;;;;;4999323;28;20198;-57
2022/03/22 08:03:40;;;;;;;16.63;13.27;;;;;;;;;;5003974;28;20220;-59
2022/03/22 08:06:07;;;;;;;17.07;12.50;;;;;;;;;;5002375;28;20204;-59
2022/03/22 08:08:33;;;;;;;16.47;11.97;;;;;;;;;;4998666;28;20224;-58
2022/03/22 08:10:59;;;;;;;15.07;11.27;;;;;;;;;;4995863;28;20728;-61
2022/03/22 08:13:26;;;;;;;15.07;12.33;;;;;;;;;;5000743;28;21237;-57
2022/03/22 08:15:52;;;;;;;17.57;11.83;;;;;;;;;;5006384;28;20646;-58
2022/03/22 08:18:18;;;;;;;16.90;12.20;;;;;;;;;;5005858;28;20569;-58
2022/03/22 08:20:44;;;;;;;15.27;12.73;;;;;;;;;;5001221;28;20446;-58
2022/03/22 08:23:10;;;;;;;17.43;12.73;;;;;;;;;;5000267;28;20189;-58
2022/03/22 08:25:37;;;;;;;14.83;12.30;;;;;;;;;;5005367;28;21045;-58
2022/03/22 08:28:03;;;;;;;16.63;12.43;;;;;;;;;;4997828;28;20190;-58
2022/03/22 08:30:30;;;;;;;15.57;12.30;;;;;;;;;;5003782;28;20583;-58
2022/03/22 08:32:58;;;;;;;17.93;12.60;;;;;;;;;;4997997;28;20239;-58
2022/03/22 08:35:24;;;;;;;15.97;12.27;;;;;;;;;;5003365;28;20200;-58
2022/03/22 08:37:50;;;;;;;14.33;12.40;;;;;;;;;;5005086;28;25177;-58
2022/03/22 08:40:16;;;;;;;13.93;12.43;;;;;;;;;;5006545;28;20563;-58
2022/03/22 08:42:46;;;;;;;18.37;12.60;;;;;;;;;;5003159;28;20193;-58
2022/03/22 08:45:15;;;;;;;14.13;11.97;;;;;;;;;;5009398;28;20213;-58
2022/03/22 08:47:41;;;;;;;15.70;12.37;;;;;;;;;;5004007;28;20550;-58
2022/03/22 08:50:09;;;;;;;14.60;12.97;;;;;;;;;;4991604;28;20198;-58
2022/03/22 08:52:36;;;;;;;18.40;13.40;;;;;;;;;;5011707;28;20194;-58
2022/03/22 08:55:02;;;;;;;15.90;12.73;;;;;;;;;;5009090;28;20395;-58
2022/03/22 08:57:28;;;;;;;14.27;12.77;;;;;;;;;;5004733;28;20197;-58
2022/03/22 08:59:54;;;;;;;15.23;12.30;;;;;;;;;;5008721;28;20570;-59
2022/03/22 09:02:20;;;;;;;16.33;12.00;;;;;;;;;;5008125;28;20197;-58
2022/03/22 09:07:31;;;;;;;13.23;11.83;;;;;;;;;;5001066;28;20231;-58
2022/03/22 09:09:57;;;;;;;13.10;11.80;;;;;;;;;;5004392;28;21260;-57
2022/03/22 09:12:23;;;;;;;13.77;12.30;;;;;;;;;;5006559;28;20544;-58
2022/03/22 09:14:53;;;;;;;13.27;11.87;;;;;;;;;;5003795;28;20565;-58
2022/03/22 09:17:19;;;;;;;13.90;12.20;;;;;;;;;;5008693;28;20217;-58
2022/03/22 09:19:45;;;;;;;13.93;12.37;;;;;;;;;;5011840;28;20236;-58
2022/03/22 09:22:11;;;;;;;17.38;12.98;;;;;;;;;;4998290;28;20315;-58
2022/03/22 09:24:37;;;;;;;14.30;12.80;;;;;;;;;;5005228;28;20637;-58
2022/03/22 09:27:03;;;;;;;14.95;11.23;;;;;;;;;;5008212;28;20229;-59
2022/03/22 09:29:29;;;;;;;14.38;10.98;;;;;;;;;;5005012;28;20190;-59
2022/03/22 09:31:55;;;;;;;12.15;10.93;;;;;;;;;;5003583;28;20197;-59
2022/03/22 09:34:22;;;;;;;13.50;11.95;;;;;;;;;;5004059;28;20350;-58
2022/03/22 09:36:48;;;;;;;15.32;11.70;;;;;;;;;;5002929;28;20611;-59
2022/03/22 09:39:14;;;;;;;13.00;11.43;;;;;;;;;;5001180;28;20189;-59
2022/03/22 09:41:40;;;;;;;13.95;11.30;;;;;;;;;;5001177;28;20616;-60
2022/03/22 09:44:06;;;;;;;12.65;11.20;;;;;;;;;;5001936;28;20692;-59
2022/03/22 09:46:35;;;;;;;13.35;11.95;;;;;;;;;;4997079;28;20779;-59
2022/03/22 09:49:01;;;;;;;12.55;11.25;;;;;;;;;;5003988;28;20726;-59
2022/03/22 09:51:45;;;;;;;13.77;10.90;;;;;;;;;;5007264;28;20280;-59
2022/03/22 09:54:12;;;;;;;12.35;11.05;;;;;;;;;;4993251;28;20221;-59
2022/03/22 09:56:39;;;;;;;12.60;11.32;;;;;;;;;;4989127;28;20626;-60
2022/03/22 09:59:05;;;;;;;14.18;11.13;;;;;;;;;;4997057;28;20201;-58
2022/03/22 10:01:32;;;;;;;14.77;10.40;;;;;;;;;;4999310;28;20201;-58
2022/03/22 10:04:02;;;;;;;20.08;9.73;;;;;;;;;;4999198;28;20213;-58
2022/03/22 10:06:29;;;;;;;10.70;9.00;;;;;;;;;;5005311;28;20196;-57
2022/03/22 10:08:55;;;;;;;13.43;9.50;;;;;;;;;;5000059;28;20193;-57
2022/03/22 10:11:21;;;;;;;8.82;8.02;;;;;;;;;;5005093;28;20835;-58
2022/03/22 10:13:53;;;;;;;12.75;7.93;;;;;;;;;;5009324;28;20189;-56
2022/03/22 10:16:19;;;;;;;12.75;7.60;;;;;;;;;;5003911;28;20654;-56
2022/03/22 10:18:45;;;;;;;9.90;8.20;;;;;;;;;;5004311;28;20190;-56
2022/03/22 10:21:11;;;;;;;10.27;7.90;;;;;;;;;;5004689;28;20212;-56
2022/03/22 10:23:55;;;;;;;9.30;7.30;;;;;;;;;;5006368;28;20670;-56
2022/03/22 10:26:21;;;;;;;10.98;8.15;;;;;;;;;;5001095;28;20741;-56
2022/03/22 10:28:55;;;;;;;8.63;7.80;;;;;;;;;;4997476;28;20193;-56
2022/03/22 10:31:33;;;;;;;9.20;7.18;;;;;;;;;;5006526;28;20185;-56
2022/03/22 10:33:59;;;;;;;10.52;7.80;;;;;;;;;;5006740;28;20768;-55
2022/03/22 10:36:25;;;;;;;11.68;7.35;;;;;;;;;;5002343;28;20196;-56
2022/03/22 10:38:58;;;;;;;9.23;7.43;;;;;;;;;;5007317;28;20816;-56
2022/03/22 10:41:31;;;;;;;8.52;6.93;;;;;;;;;;5004257;28;20213;-56
2022/03/22 10:44:07;;;;;;;7.95;7.15;;;;;;;;;;5003363;28;20239;-55
2022/03/22 10:46:33;;;;;;;7.28;6.60;;;;;;;;;;5000772;28;20192;-56
2022/03/22 10:49:09;;;;;;;9.95;7.35;;;;;;;;;;5001982;28;20185;-56
2022/03/22 10:51:44;;;;;;;8.45;7.07;;;;;;;;;;5004993;28;20370;-56
2022/03/22 10:54:15;;;;;;;8.38;7.07;;;;;;;;;;5006643;28;20607;-56
2022/03/22 10:56:46;;;;;;;11.75;7.35;;;;;;;;;;5001589;28;20185;-57
2022/03/22 10:59:13;;;;;;;7.20;6.50;;;;;;;;;;5003274;28;20664;-57
2022/03/22 11:01:41;;;;;;;7.53;6.75;;;;;;;;;;4994515;28;20665;-57
2022/03/22 11:04:07;;;;;;;6.55;5.95;;;;;;;;;;5003767;28;20647;-57
2022/03/22 11:06:33;;;;;;;7.40;6.70;;;;;;;;;;5003367;28;20189;-57
2022/03/22 11:09:00;;;;;;;7.13;6.45;;;;;;;;;;5002131;28;20194;-57
2022/03/22 11:11:28;;;;;;;6.57;5.93;;;;;;;;;;5003160;28;20197;-57
2022/03/22 11:13:54;;;;;;;10.77;7.30;;;;;;;;;;4996541;28;20185;-57
2022/03/22 11:16:20;;;;;;;7.20;6.50;;;;;;;;;;4990460;28;20215;-57
2022/03/22 11:18:46;;;;;;;6.63;6.00;;;;;;;;;;4995656;28;20204;-57
2022/03/22 11:21:15;;;;;;;8.10;6.00;;;;;;;;;;5002817;28;20265;-57
2022/03/22 11:23:44;;;;;;;6.70;6.18;;;;;;;;;;4991899;28;20224;-56
2022/03/22 11:26:11;;;;;;;7.25;6.40;;;;;;;;;;4994344;28;20230;-57
2022/03/22 11:28:38;;;;;;;7.13;6.10;;;;;;;;;;4993795;28;20673;-57
2022/03/22 11:31:05;;;;;;;7.40;6.15;;;;;;;;;;5002502;28;20193;-57
2022/03/22 11:36:17;;;;;;;6.97;6.38;;;;;;;;;;5009608;28;20289;-57
2022/03/22 11:38:47;;;;;;;9.10;6.15;;;;;;;;;;5003021;28;20621;-57
2022/03/22 11:44:07;;;;;;;7.25;6.05;;;;;;;;;;5005446;28;20255;-57
2022/03/22 11:46:33;;;;;;;6.57;5.97;;;;;;;;;;5004063;28;20206;-57
2022/03/22 11:49:10;;;;;;;6.45;5.78;;;;;;;;;;5005405;28;20250;-57
2022/03/22 11:51:45;;;;;;;10.00;8.90;;;;;;;;;;5005235;28;20191;-56
2022/03/22 11:54:11;;;;;;;11.05;9.55;;;;;;;;;;4995696;28;20215;-59
2022/03/22 11:56:45;;;;;;;6.10;5.53;;;;;;;;;;4999626;28;20319;-57
2022/03/22 11:59:12;;;;;;;7.40;6.00;;;;;;;;;;4997747;28;20185;-59
2022/03/22 12:01:38;;;;;;;6.45;5.85;;;;;;;;;;5004078;28;20217;-58
2022/03/22 12:04:14;;;;;;;9.15;6.03;;;;;;;;;;4998807;28;20216;-56
2022/03/22 12:06:40;;;;;;;7.70;5.80;;;;;;;;;;5006455;28;20187;-56
2022/03/22 12:09:07;;;;;;;7.35;5.60;;;;;;;;;;5004609;28;20189;-56
2022/03/22 12:11:35;;;;;;;8.40;6.05;;;;;;;;;;5005063;28;20182;-57
2022/03/22 12:14:03;;;;;;;6.22;5.57;;;;;;;;;;5001128;28;20224;-57
2022/03/22 12:16:29;;;;;;;6.65;5.45;;;;;;;;;;5004815;28;20193;-56
2022/03/22 12:18:55;;;;;;;6.50;5.50;;;;;;;;;;5001652;28;20200;-57
2022/03/22 12:21:21;;;;;;;7.15;5.82;;;;;;;;;;5000026;28;20193;-55
2022/03/22 12:23:47;;;;;;;9.18;5.97;;;;;;;;;;5002629;28;20686;-55
2022/03/22 12:26:13;;;;;;;6.90;5.40;;;;;;;;;;5002593;28;20286;-55
2022/03/22 12:28:47;;;;;;;5.80;5.30;;;;;;;;;;5004996;28;20252;-55
2022/03/22 12:31:13;;;;;;;7.00;5.57;;;;;;;;;;5005248;28;20181;-55
2022/03/22 12:33:38;;;;;;;6.28;5.68;;;;;;;;;;5000406;28;20507;-55
2022/03/22 12:36:05;;;;;;;6.22;5.70;;;;;;;;;;5000149;28;20193;-55
2022/03/22 12:38:31;;;;;;;6.22;5.63;;;;;;;;;;5001760;28;20182;-55
2022/03/22 12:40:57;;;;;;;6.97;5.80;;;;;;;;;;5000839;28;20193;-54
2022/03/22 12:43:23;;;;;;;7.10;5.57;;;;;;;;;;5001273;28;20180;-55
2022/03/22 12:45:49;;;;;;;7.85;5.78;;;;;;;;;;4998544;28;20277;-54
2022/03/22 12:48:16;;;;;;;8.80;5.30;;;;;;;;;;4997567;28;20190;-55
2022/03/22 12:50:42;;;;;;;5.50;4.90;;;;;;;;;;4995285;28;20277;-54
2022/03/22 12:53:08;;;;;;;8.05;5.90;;;;;;;;;;4999935;28;20190;-54
2022/03/22 12:55:34;;;;;;;6.25;5.60;;;;;;;;;;4998716;28;20562;-53
2022/03/22 12:58:01;;;;;;;8.52;5.45;;;;;;;;;;4997741;28;20189;-54
2022/03/22 13:00:31;;;;;;;7.90;5.63;;;;;;;;;;5008360;28;20328;-53
2022/03/22 13:02:57;;;;;;;6.15;5.32;;;;;;;;;;5002849;28;20280;-53
2022/03/22 13:05:31;;;;;;;7.57;5.50;;;;;;;;;;5001912;28;20788;-54
2022/03/22 13:08:00;;;;;;;7.45;5.20;;;;;;;;;;4999318;28;20185;-54
2022/03/22 13:13:18;;;;;;;5.50;4.97;;;;;;;;;;4998237;28;20282;-54
2022/03/22 13:15:47;;;;;;;9.50;5.22;;;;;;;;;;5005238;28;20194;-54
2022/03/22 13:18:13;;;;;;;6.78;4.90;;;;;;;;;;4999148;28;20718;-53
2022/03/22 13:20:40;;;;;;;7.38;4.85;;;;;;;;;;4998532;28;20231;-54
2022/03/22 13:23:06;;;;;;;9.05;5.38;;;;;;;;;;5001243;28;20193;-53
2022/03/22 13:25:36;;;;;;;6.22;4.80;;;;;;;;;;4997484;28;20244;-53
2022/03/22 13:28:03;;;;;;;7.68;5.22;;;;;;;;;;5002556;28;20189;-53
2022/03/22 13:30:30;;;;;;;6.10;5.28;;;;;;;;;;4994044;28;20276;-53
2022/03/22 13:33:08;;;;;;;7.28;5.03;;;;;;;;;;5004929;28;20193;-53
2022/03/22 13:35:34;;;;;;;7.60;5.32;;;;;;;;;;5007042;28;20633;-51
2022/03/22 13:38:01;;;;;;;11.35;5.35;;;;;;;;;;5009001;28;20656;-52
2022/03/22 13:40:27;;;;;;;8.07;5.18;;;;;;;;;;5005091;28;20193;-53
2022/03/22 13:42:54;;;;;;;13.68;8.10;;;;;;;;;;4995332;28;20205;-58
2022/03/22 13:45:21;;;;;;;6.95;5.20;;;;;;;;;;4989924;28;20213;-53
2022/03/22 13:47:48;;;;;;;11.40;5.43;;;;;;;;;;4991993;28;20181;-54
2022/03/22 13:50:17;;;;;;;6.55;5.43;;;;;;;;;;4999326;28;21297;-53
2022/03/22 13:52:44;;;;;;;8.52;5.50;;;;;;;;;;4991770;28;20317;-54
2022/03/22 13:55:14;;;;;;;7.43;5.43;;;;;;;;;;4995782;28;20196;-54
2022/03/22 13:57:41;;;;;;;12.77;5.28;;;;;;;;;;4997018;28;20193;-54
2022/03/22 14:00:07;;;;;;;9.50;6.07;;;;;;;;;;5003610;28;20670;-53
2022/03/22 14:02:33;;;;;;;7.80;5.88;;;;;;;;;;5003005;28;20950;-54
2022/03/22 14:04:59;;;;;;;7.80;5.53;;;;;;;;;;5004849;28;20213;-54
2022/03/22 14:07:25;;;;;;;6.93;5.43;;;;;;;;;;5002283;28;20196;-54
2022/03/22 14:09:51;;;;;;;7.13;5.47;;;;;;;;;;5002975;28;20695;-54
2022/03/22 14:12:17;;;;;;;8.25;5.45;;;;;;;;;;4998118;28;20192;-54
2022/03/22 14:14:43;;;;;;;11.65;5.55;;;;;;;;;;4994615;28;20204;-54
2022/03/22 14:17:09;;;;;;;6.82;4.93;;;;;;;;;;5005306;28;20554;-53
2022/03/22 14:19:36;;;;;;;8.77;5.50;;;;;;;;;;4999842;28;20204;-54
2022/03/22 14:22:02;;;;;;;8.23;5.40;;;;;;;;;;5003190;28;20616;-53
2022/03/22 14:24:27;;;;;;;9.60;5.70;;;;;;;;;;4999548;28;20221;-54
2022/03/22 14:26:55;;;;;;;10.55;5.95;;;;;;;;;;4999490;28;20233;-54
2022/03/22 14:29:21;;;;;;;8.52;5.93;;;;;;;;;;5006932;28;20190;-53
2022/03/22 14:31:47;;;;;;;7.70;5.40;;;;;;;;;;5002672;28;20196;-53
2022/03/22 14:35:46;;;;;;;9.27;5.88;;;;;;;;;;5000161;28;20220;-54
2022/03/22 14:36:58;;;;;;;9.30;6.65;;;;;;;;;;4998916;28;20657;-53
2022/03/22 14:39:24;;;;;;;6.97;5.32;;;;;;;;;;4998320;28;20189;-54
2022/03/22 14:41:50;;;;;;;7.55;5.70;;;;;;;;;;4997973;28;20193;-53
2022/03/22 14:44:16;;;;;;;10.75;5.90;;;;;;;;;;4997201;28;20212;-53
2022/03/22 14:46:43;;;;;;;6.28;5.10;;;;;;;;;;4999077;28;20196;-54
2022/03/22 14:49:09;;;;;;;6.00;5.20;;;;;;;;;;5002655;28;20631;-53
2022/03/22 14:54:34;;;;;;;8.75;5.30;;;;;;;;;;5006465;28;20611;-53
2022/03/22 14:59:45;;;;;;;10.85;9.32;;;;;;;;;;5003182;28;20621;-55
2022/03/22 15:02:13;;;;;;;7.43;6.30;;;;;;;;;;4999339;28;21283;-54